BEL4DV EBBR-LPMA
Flight info
| Callsign | BEL4DV |
|---|---|
| Flight time | 3h 37m |
| Altitude | 39000 |
| Route | CIV N872 MEDIL DCT ERIGA UN741 AZFIC DCT LOTEE DCT AGADO DCT IBIDO DCT ASMAR DCT LIDRO |
| Aircraft | A320/M-DE3FGHIJ1LORVWY/H |
Departure
| Time | 2026-05-04 04:54 |
|---|---|
| Airport | Brussels Airport (EBBR) |
Arrival
| Time | 2026-05-04 08:31 |
|---|---|
| Airport | Cristiano Ronaldo International Airport (LPMA) |
| Time | Latitude | Longitude | Altitude | Speed | Heading |
|---|---|---|---|---|---|
| 2026-05-04 04:28 | 50.90372 | 4.48485 | 121 ft | 0 kts | 155° |
| 2026-05-04 04:44 | 50.90391 | 4.48471 | 117 ft | 4 kts | 149° |
| 2026-05-04 04:44 | 50.90413 | 4.48447 | 116 ft | 4 kts | 139° |
| 2026-05-04 04:44 | 50.90431 | 4.48416 | 116 ft | 4 kts | 122° |
| 2026-05-04 04:44 | 50.90441 | 4.48379 | 120 ft | 4 kts | 85° |
| 2026-05-04 04:45 | 50.90439 | 4.48362 | 117 ft | 0 kts | 65° |
| 2026-05-04 04:47 | 50.90439 | 4.48364 | 117 ft | 1 kts | 65° |
| 2026-05-04 04:47 | 50.90453 | 4.48409 | 117 ft | 5 kts | 65° |
| 2026-05-04 04:47 | 50.90466 | 4.48457 | 118 ft | 4 kts | 65° |
| 2026-05-04 04:48 | 50.90478 | 4.48499 | 119 ft | 6 kts | 65° |
| 2026-05-04 04:49 | 50.90637 | 4.48773 | 120 ft | 11 kts | 65° |
| 2026-05-04 04:49 | 50.90668 | 4.48882 | 118 ft | 12 kts | 65° |
| 2026-05-04 04:49 | 50.90711 | 4.49031 | 120 ft | 14 kts | 65° |
| 2026-05-04 04:49 | 50.90748 | 4.49160 | 120 ft | 12 kts | 65° |
| 2026-05-04 04:50 | 50.90779 | 4.49265 | 120 ft | 10 kts | 65° |
| 2026-05-04 04:50 | 50.90810 | 4.49371 | 122 ft | 11 kts | 65° |
| 2026-05-04 04:50 | 50.90839 | 4.49472 | 123 ft | 9 kts | 65° |
| 2026-05-04 04:50 | 50.90862 | 4.49553 | 123 ft | 7 kts | 65° |
| 2026-05-04 04:51 | 50.90886 | 4.49638 | 121 ft | 11 kts | 65° |
| 2026-05-04 04:51 | 50.90915 | 4.49738 | 121 ft | 9 kts | 65° |
| 2026-05-04 04:51 | 50.90945 | 4.49816 | 120 ft | 9 kts | 47° |
| 2026-05-04 04:51 | 50.91010 | 4.49891 | 118 ft | 12 kts | 27° |
| 2026-05-04 04:52 | 50.91080 | 4.49941 | 120 ft | 9 kts | 21° |
| 2026-05-04 04:52 | 50.91128 | 4.49917 | 116 ft | 7 kts | 306° |
| 2026-05-04 04:52 | 50.91129 | 4.49853 | 116 ft | 5 kts | 250° |
| 2026-05-04 04:52 | 50.91128 | 4.49851 | 116 ft | 0 kts | 250° |
| 2026-05-04 04:53 | 50.91102 | 4.49748 | 119 ft | 39 kts | 246° |
| 2026-05-04 04:53 | 50.90888 | 4.49015 | 119 ft | 105 kts | 245° |
| 2026-05-04 04:53 | 50.90509 | 4.47699 | 119 ft | 155 kts | 245° |
| 2026-05-04 04:53 | 50.90025 | 4.46059 | 575 ft | 159 kts | 244° |
| 2026-05-04 04:54 | 50.89579 | 4.44481 | 1229 ft | 160 kts | 252° |
| 2026-05-04 04:54 | 50.89259 | 4.42791 | 1833 ft | 161 kts | 254° |
| 2026-05-04 04:54 | 50.88919 | 4.41016 | 2162 ft | 179 kts | 253° |
| 2026-05-04 04:54 | 50.88528 | 4.38992 | 2402 ft | 201 kts | 253° |
| 2026-05-04 04:55 | 50.87974 | 4.36813 | 2634 ft | 227 kts | 235° |
| 2026-05-04 04:55 | 50.86719 | 4.35132 | 2988 ft | 250 kts | 208° |
| 2026-05-04 04:55 | 50.85156 | 4.33877 | 3683 ft | 258 kts | 208° |
| 2026-05-04 04:55 | 50.83548 | 4.32606 | 4525 ft | 260 kts | 208° |
| 2026-05-04 04:56 | 50.81920 | 4.31318 | 5354 ft | 262 kts | 208° |
| 2026-05-04 04:56 | 50.80282 | 4.30016 | 6161 ft | 265 kts | 208° |
| 2026-05-04 04:56 | 50.78663 | 4.28613 | 6926 ft | 266 kts | 216° |
| 2026-05-04 04:56 | 50.77285 | 4.26666 | 7685 ft | 267 kts | 230° |
| 2026-05-04 04:57 | 50.76179 | 4.24293 | 8466 ft | 268 kts | 234° |
| 2026-05-04 04:57 | 50.75093 | 4.21885 | 9251 ft | 270 kts | 234° |
| 2026-05-04 04:57 | 50.73994 | 4.19468 | 10005 ft | 272 kts | 233° |
| 2026-05-04 04:57 | 50.72857 | 4.16979 | 10334 ft | 290 kts | 233° |
| 2026-05-04 04:58 | 50.71630 | 4.14295 | 10486 ft | 313 kts | 233° |
| 2026-05-04 04:58 | 50.70328 | 4.11444 | 10856 ft | 325 kts | 233° |
| 2026-05-04 04:58 | 50.68995 | 4.08528 | 11462 ft | 330 kts | 233° |
| 2026-05-04 04:58 | 50.67647 | 4.05583 | 12128 ft | 333 kts | 233° |
| 2026-05-04 04:59 | 50.66300 | 4.02645 | 12777 ft | 336 kts | 233° |
| 2026-05-04 04:59 | 50.64925 | 3.99649 | 13430 ft | 339 kts | 233° |
| 2026-05-04 04:59 | 50.63538 | 3.96627 | 14038 ft | 342 kts | 233° |
| 2026-05-04 04:59 | 50.62138 | 3.93582 | 14613 ft | 344 kts | 233° |
| 2026-05-04 05:00 | 50.60723 | 3.90511 | 15192 ft | 347 kts | 233° |
| 2026-05-04 05:00 | 50.59303 | 3.87427 | 15765 ft | 349 kts | 233° |
| 2026-05-04 05:00 | 50.56413 | 3.82968 | 16670 ft | 355 kts | 215° |
| 2026-05-04 05:01 | 50.54236 | 3.81098 | 17208 ft | 360 kts | 205° |
| 2026-05-04 05:01 | 50.51926 | 3.79535 | 17740 ft | 363 kts | 205° |
| 2026-05-04 05:01 | 50.49598 | 3.77951 | 18264 ft | 366 kts | 206° |
| 2026-05-04 05:01 | 50.47251 | 3.76351 | 18746 ft | 369 kts | 205° |
| 2026-05-04 05:02 | 50.44887 | 3.74744 | 19261 ft | 370 kts | 205° |
| 2026-05-04 05:02 | 50.42519 | 3.73142 | 19802 ft | 371 kts | 205° |
| 2026-05-04 05:02 | 50.40173 | 3.71553 | 20339 ft | 372 kts | 205° |
| 2026-05-04 05:02 | 50.37765 | 3.69919 | 20877 ft | 373 kts | 205° |
| 2026-05-04 05:03 | 50.35487 | 3.68104 | 21402 ft | 373 kts | 213° |
| 2026-05-04 05:03 | 50.33429 | 3.65625 | 21885 ft | 375 kts | 223° |
| 2026-05-04 05:04 | 50.28381 | 3.56140 | 23279 ft | 381 kts | 229° |
| 2026-05-04 05:04 | 50.26718 | 3.52920 | 23688 ft | 382 kts | 229° |
| 2026-05-04 05:04 | 50.25040 | 3.49675 | 24061 ft | 383 kts | 229° |
| 2026-05-04 05:06 | 50.13198 | 3.26864 | 26460 ft | 391 kts | 229° |
| 2026-05-04 05:06 | 50.11480 | 3.23569 | 26758 ft | 392 kts | 229° |
| 2026-05-04 05:06 | 50.09775 | 3.20300 | 27070 ft | 394 kts | 229° |
| 2026-05-04 05:07 | 50.08048 | 3.16989 | 27418 ft | 394 kts | 229° |
| 2026-05-04 05:07 | 50.06316 | 3.13676 | 27731 ft | 395 kts | 229° |
| 2026-05-04 05:07 | 50.04577 | 3.10361 | 28031 ft | 396 kts | 229° |
| 2026-05-04 05:09 | 49.90514 | 2.83669 | 30089 ft | 403 kts | 229° |
| 2026-05-04 05:09 | 49.88736 | 2.80320 | 30351 ft | 401 kts | 229° |
| 2026-05-04 05:10 | 49.86961 | 2.76974 | 30617 ft | 400 kts | 229° |
| 2026-05-04 05:10 | 49.85196 | 2.73652 | 30868 ft | 400 kts | 229° |
| 2026-05-04 05:10 | 49.83430 | 2.70331 | 31138 ft | 399 kts | 229° |
| 2026-05-04 05:10 | 49.81663 | 2.67011 | 31398 ft | 398 kts | 229° |
| 2026-05-04 05:11 | 49.79898 | 2.63700 | 31652 ft | 397 kts | 229° |
| 2026-05-04 05:11 | 49.78137 | 2.60405 | 31878 ft | 397 kts | 229° |
| 2026-05-04 05:11 | 49.76378 | 2.57118 | 32134 ft | 396 kts | 229° |
| 2026-05-04 05:11 | 49.74621 | 2.53840 | 32381 ft | 396 kts | 229° |
| 2026-05-04 05:12 | 49.72885 | 2.50604 | 32626 ft | 395 kts | 229° |
| 2026-05-04 05:12 | 49.71136 | 2.47346 | 32848 ft | 395 kts | 229° |
| 2026-05-04 05:12 | 49.69383 | 2.44084 | 33071 ft | 394 kts | 229° |
| 2026-05-04 05:12 | 49.67630 | 2.40828 | 33309 ft | 394 kts | 229° |
| 2026-05-04 05:13 | 49.65880 | 2.37579 | 33552 ft | 393 kts | 229° |
| 2026-05-04 05:13 | 49.64134 | 2.34335 | 33798 ft | 393 kts | 229° |
| 2026-05-04 05:13 | 49.62387 | 2.31101 | 34028 ft | 392 kts | 229° |
| 2026-05-04 05:13 | 49.60635 | 2.27867 | 34206 ft | 392 kts | 229° |
| 2026-05-04 05:14 | 49.58883 | 2.24637 | 34356 ft | 393 kts | 229° |
| 2026-05-04 05:14 | 49.57128 | 2.21405 | 34496 ft | 395 kts | 229° |
| 2026-05-04 05:14 | 49.55363 | 2.18155 | 34628 ft | 396 kts | 229° |
| 2026-05-04 05:14 | 49.53592 | 2.14896 | 34755 ft | 397 kts | 229° |
| 2026-05-04 05:15 | 49.51811 | 2.11625 | 34888 ft | 398 kts | 229° |
| 2026-05-04 05:15 | 49.50028 | 2.08355 | 34992 ft | 399 kts | 228° |
| 2026-05-04 05:15 | 49.48240 | 2.05078 | 35119 ft | 400 kts | 229° |
| 2026-05-04 05:15 | 49.46448 | 2.01793 | 35243 ft | 401 kts | 229° |
| 2026-05-04 05:16 | 49.44651 | 1.98503 | 35366 ft | 402 kts | 229° |
| 2026-05-04 05:16 | 49.42852 | 1.95207 | 35488 ft | 403 kts | 229° |
| 2026-05-04 05:16 | 49.41048 | 1.91908 | 35613 ft | 404 kts | 229° |
| 2026-05-04 05:16 | 49.39236 | 1.88601 | 35739 ft | 404 kts | 229° |
| 2026-05-04 05:17 | 49.37424 | 1.85304 | 35862 ft | 404 kts | 229° |
| 2026-05-04 05:17 | 49.35606 | 1.82006 | 35988 ft | 405 kts | 229° |
| 2026-05-04 05:17 | 49.33786 | 1.78709 | 36114 ft | 405 kts | 229° |
| 2026-05-04 05:17 | 49.31983 | 1.75450 | 36263 ft | 405 kts | 229° |
| 2026-05-04 05:18 | 49.30159 | 1.72155 | 36389 ft | 405 kts | 229° |
| 2026-05-04 05:18 | 49.28337 | 1.68857 | 36519 ft | 405 kts | 229° |
| 2026-05-04 05:18 | 49.26516 | 1.65561 | 36640 ft | 405 kts | 229° |
| 2026-05-04 05:18 | 49.24693 | 1.62270 | 36771 ft | 405 kts | 229° |
| 2026-05-04 05:19 | 49.22866 | 1.58978 | 36901 ft | 405 kts | 229° |
| 2026-05-04 05:19 | 49.21043 | 1.55696 | 37031 ft | 405 kts | 229° |
| 2026-05-04 05:19 | 49.19221 | 1.52421 | 37167 ft | 404 kts | 229° |
| 2026-05-04 05:19 | 49.17397 | 1.49143 | 37299 ft | 404 kts | 229° |
| 2026-05-04 05:20 | 49.15575 | 1.45871 | 37434 ft | 403 kts | 229° |
| 2026-05-04 05:20 | 49.13780 | 1.42659 | 37576 ft | 402 kts | 229° |
| 2026-05-04 05:20 | 49.11963 | 1.39413 | 37710 ft | 402 kts | 229° |
| 2026-05-04 05:20 | 49.10147 | 1.36179 | 37848 ft | 401 kts | 229° |
| 2026-05-04 05:21 | 49.08329 | 1.32947 | 37988 ft | 400 kts | 229° |
| 2026-05-04 05:21 | 49.06518 | 1.29721 | 38145 ft | 399 kts | 229° |
| 2026-05-04 05:21 | 49.04721 | 1.26518 | 38285 ft | 398 kts | 229° |
| 2026-05-04 05:21 | 49.02923 | 1.23323 | 38425 ft | 396 kts | 229° |
| 2026-05-04 05:22 | 49.01130 | 1.20143 | 38562 ft | 395 kts | 229° |
| 2026-05-04 05:22 | 48.99342 | 1.16968 | 38686 ft | 393 kts | 229° |
| 2026-05-04 05:22 | 48.97565 | 1.13816 | 38797 ft | 391 kts | 229° |
| 2026-05-04 05:22 | 48.95796 | 1.10693 | 38930 ft | 389 kts | 229° |
| 2026-05-04 05:23 | 48.92258 | 1.04460 | 38976 ft | 390 kts | 229° |
| 2026-05-04 05:23 | 48.88701 | 0.98195 | 38978 ft | 393 kts | 229° |
| 2026-05-04 05:24 | 48.85141 | 0.91931 | 38972 ft | 395 kts | 229° |
| 2026-05-04 05:24 | 48.81522 | 0.85594 | 38980 ft | 398 kts | 229° |
| 2026-05-04 05:25 | 48.77888 | 0.79227 | 38977 ft | 400 kts | 229° |
| 2026-05-04 05:25 | 48.74226 | 0.72829 | 38973 ft | 403 kts | 229° |
| 2026-05-04 05:26 | 48.70528 | 0.66403 | 38972 ft | 405 kts | 229° |
| 2026-05-04 05:26 | 48.66832 | 0.59997 | 38975 ft | 408 kts | 229° |
| 2026-05-04 05:28 | 48.51713 | 0.33905 | 38959 ft | 418 kts | 227° |
| 2026-05-04 05:29 | 48.47865 | 0.27315 | 38957 ft | 420 kts | 227° |
| 2026-05-04 05:29 | 48.44008 | 0.20711 | 38962 ft | 421 kts | 227° |
| 2026-05-04 05:31 | 48.28448 | -0.05736 | 38967 ft | 424 kts | 227° |
| 2026-05-04 05:32 | 48.24541 | -0.12321 | 38962 ft | 426 kts | 227° |
| 2026-05-04 05:33 | 48.18615 | -0.22283 | 38959 ft | 427 kts | 227° |
| 2026-05-04 05:33 | 48.14650 | -0.28935 | 38967 ft | 428 kts | 227° |
| 2026-05-04 05:34 | 48.10676 | -0.35600 | 38964 ft | 429 kts | 227° |
| 2026-05-04 05:34 | 48.06704 | -0.42246 | 38966 ft | 429 kts | 227° |
| 2026-05-04 05:35 | 48.02713 | -0.48897 | 38970 ft | 429 kts | 227° |
| 2026-05-04 05:35 | 47.98725 | -0.55536 | 38962 ft | 429 kts | 227° |
| 2026-05-04 05:36 | 47.94724 | -0.62152 | 38968 ft | 429 kts | 227° |
| 2026-05-04 05:36 | 47.90722 | -0.68765 | 38971 ft | 429 kts | 227° |
| 2026-05-04 05:37 | 47.86746 | -0.75343 | 38970 ft | 429 kts | 227° |
| 2026-05-04 05:37 | 47.82743 | -0.81931 | 38974 ft | 429 kts | 227° |
| 2026-05-04 05:38 | 47.76705 | -0.91815 | 38978 ft | 431 kts | 227° |
| 2026-05-04 05:38 | 47.72662 | -0.98413 | 38974 ft | 432 kts | 227° |
| 2026-05-04 05:39 | 47.66611 | -1.08290 | 38979 ft | 433 kts | 227° |
| 2026-05-04 05:40 | 47.60526 | -1.18181 | 38983 ft | 433 kts | 227° |
| 2026-05-04 05:40 | 47.56450 | -1.24771 | 38986 ft | 433 kts | 226° |
| 2026-05-04 05:41 | 47.52381 | -1.31341 | 38995 ft | 433 kts | 227° |
| 2026-05-04 05:41 | 47.48314 | -1.37899 | 38998 ft | 432 kts | 227° |
| 2026-05-04 05:42 | 47.44246 | -1.44440 | 38996 ft | 432 kts | 227° |
| 2026-05-04 05:42 | 47.40172 | -1.50964 | 38998 ft | 432 kts | 227° |
| 2026-05-04 05:43 | 47.36097 | -1.57477 | 38995 ft | 432 kts | 227° |
| 2026-05-04 05:45 | 47.19850 | -1.83302 | 38999 ft | 429 kts | 226° |
| 2026-05-04 05:47 | 47.03585 | -2.08893 | 39001 ft | 428 kts | 226° |
| 2026-05-04 05:47 | 46.99512 | -2.15262 | 38994 ft | 428 kts | 226° |
| 2026-05-04 05:48 | 46.95434 | -2.21623 | 38993 ft | 428 kts | 226° |
| 2026-05-04 05:48 | 46.91383 | -2.27941 | 38997 ft | 428 kts | 226° |
| 2026-05-04 05:49 | 46.87304 | -2.34292 | 38993 ft | 428 kts | 227° |
| 2026-05-04 05:49 | 46.83961 | -2.41486 | 38994 ft | 429 kts | 239° |
| 2026-05-04 05:51 | 46.72475 | -2.70526 | 38986 ft | 433 kts | 238° |
| 2026-05-04 05:52 | 46.69447 | -2.78124 | 38992 ft | 433 kts | 238° |
| 2026-05-04 05:52 | 46.66416 | -2.85721 | 39002 ft | 433 kts | 239° |
| 2026-05-04 05:54 | 46.53281 | -3.14934 | 38997 ft | 432 kts | 225° |
| 2026-05-04 05:55 | 46.49098 | -3.21213 | 38990 ft | 433 kts | 225° |
| 2026-05-04 05:55 | 46.44914 | -3.27493 | 38997 ft | 433 kts | 225° |
| 2026-05-04 05:56 | 46.40723 | -3.33780 | 38997 ft | 433 kts | 225° |
| 2026-05-04 05:56 | 46.36528 | -3.40050 | 38999 ft | 433 kts | 225° |
| 2026-05-04 05:57 | 46.32356 | -3.46272 | 38999 ft | 433 kts | 225° |
| 2026-05-04 05:57 | 46.28157 | -3.52533 | 38995 ft | 433 kts | 225° |
| 2026-05-04 05:58 | 46.23956 | -3.58786 | 38997 ft | 434 kts | 225° |
| 2026-05-04 05:58 | 46.19736 | -3.65026 | 39002 ft | 434 kts | 225° |
| 2026-05-04 05:59 | 46.15521 | -3.71262 | 39000 ft | 434 kts | 225° |
| 2026-05-04 05:59 | 46.11302 | -3.77503 | 38999 ft | 434 kts | 225° |
| 2026-05-04 06:00 | 46.07098 | -3.83695 | 38996 ft | 434 kts | 225° |
| 2026-05-04 06:00 | 46.02873 | -3.89907 | 38999 ft | 434 kts | 225° |
| 2026-05-04 06:01 | 45.98639 | -3.96102 | 39010 ft | 434 kts | 225° |
| 2026-05-04 06:03 | 45.81635 | -4.20863 | 38998 ft | 436 kts | 225° |
| 2026-05-04 06:05 | 45.62397 | -4.48640 | 39003 ft | 436 kts | 225° |
| 2026-05-04 06:06 | 45.58115 | -4.54763 | 39008 ft | 436 kts | 225° |
| 2026-05-04 06:06 | 45.53828 | -4.60884 | 39008 ft | 436 kts | 225° |
| 2026-05-04 06:07 | 45.49543 | -4.67001 | 39019 ft | 436 kts | 225° |
| 2026-05-04 06:07 | 45.45280 | -4.73081 | 39008 ft | 436 kts | 225° |
| 2026-05-04 06:08 | 45.40983 | -4.79201 | 39010 ft | 436 kts | 225° |
| 2026-05-04 06:08 | 45.36676 | -4.85293 | 39012 ft | 437 kts | 225° |
| 2026-05-04 06:09 | 45.32364 | -4.91376 | 39012 ft | 437 kts | 225° |
| 2026-05-04 06:11 | 45.15100 | -5.15669 | 39015 ft | 437 kts | 225° |
| 2026-05-04 06:13 | 44.97787 | -5.39760 | 39025 ft | 437 kts | 225° |
| 2026-05-04 06:14 | 44.82563 | -5.60804 | 39018 ft | 438 kts | 224° |
| 2026-05-04 06:15 | 44.78210 | -5.66795 | 39025 ft | 437 kts | 224° |
| 2026-05-04 06:15 | 44.73857 | -5.72778 | 39030 ft | 438 kts | 225° |
| 2026-05-04 06:16 | 44.69491 | -5.78751 | 39031 ft | 438 kts | 224° |
| 2026-05-04 06:16 | 44.65097 | -5.84688 | 39029 ft | 438 kts | 223° |
| 2026-05-04 06:17 | 44.60512 | -5.90253 | 39029 ft | 439 kts | 220° |
| 2026-05-04 06:17 | 44.55762 | -5.95669 | 39029 ft | 439 kts | 219° |
| 2026-05-04 06:18 | 44.51030 | -6.01099 | 39032 ft | 439 kts | 220° |
| 2026-05-04 06:20 | 44.32275 | -6.23016 | 39034 ft | 440 kts | 220° |
| 2026-05-04 06:21 | 44.20494 | -6.36655 | 39036 ft | 440 kts | 220° |
| 2026-05-04 06:22 | 44.15777 | -6.42094 | 39042 ft | 440 kts | 220° |
| 2026-05-04 06:25 | 43.82724 | -6.79903 | 39054 ft | 440 kts | 220° |
| 2026-05-04 06:26 | 43.77992 | -6.85272 | 39062 ft | 440 kts | 220° |
| 2026-05-04 06:26 | 43.73257 | -6.90633 | 39058 ft | 440 kts | 220° |
| 2026-05-04 06:27 | 43.61397 | -7.04013 | 39055 ft | 440 kts | 220° |
| 2026-05-04 06:28 | 43.56646 | -7.09345 | 39063 ft | 440 kts | 220° |
| 2026-05-04 06:28 | 43.51898 | -7.14670 | 39071 ft | 440 kts | 220° |
| 2026-05-04 06:29 | 43.47149 | -7.19987 | 39074 ft | 440 kts | 220° |
| 2026-05-04 06:29 | 43.42417 | -7.25266 | 39073 ft | 440 kts | 220° |
| 2026-05-04 06:30 | 43.37656 | -7.30577 | 39077 ft | 440 kts | 220° |
| 2026-05-04 06:30 | 43.32894 | -7.35870 | 39076 ft | 440 kts | 220° |
| 2026-05-04 06:31 | 43.28131 | -7.41150 | 39084 ft | 440 kts | 220° |
| 2026-05-04 06:31 | 43.23365 | -7.46436 | 39081 ft | 440 kts | 220° |
| 2026-05-04 06:33 | 43.04267 | -7.67466 | 39085 ft | 440 kts | 220° |
| 2026-05-04 06:34 | 42.99517 | -7.72679 | 39086 ft | 440 kts | 220° |
| 2026-05-04 06:34 | 42.94731 | -7.77917 | 39080 ft | 440 kts | 220° |
| 2026-05-04 06:36 | 42.75615 | -7.98705 | 39089 ft | 440 kts | 220° |
| 2026-05-04 06:37 | 42.70827 | -8.03884 | 39081 ft | 439 kts | 220° |
| 2026-05-04 06:37 | 42.66042 | -8.09055 | 39087 ft | 439 kts | 220° |
| 2026-05-04 06:38 | 42.61258 | -8.14218 | 39088 ft | 439 kts | 220° |
| 2026-05-04 06:40 | 42.42888 | -8.33911 | 39093 ft | 439 kts | 220° |
| 2026-05-04 06:40 | 42.38124 | -8.39008 | 39086 ft | 439 kts | 220° |
| 2026-05-04 06:41 | 42.33326 | -8.44130 | 39078 ft | 439 kts | 220° |
| 2026-05-04 06:41 | 42.28517 | -8.49241 | 39071 ft | 439 kts | 220° |
| 2026-05-04 06:42 | 42.23714 | -8.54346 | 39075 ft | 439 kts | 220° |
| 2026-05-04 06:44 | 42.04471 | -8.74664 | 39069 ft | 439 kts | 220° |
| 2026-05-04 06:44 | 41.99694 | -8.79689 | 39087 ft | 439 kts | 220° |
| 2026-05-04 06:45 | 41.94878 | -8.84745 | 39090 ft | 439 kts | 220° |
| 2026-05-04 06:45 | 41.90043 | -8.89799 | 39087 ft | 439 kts | 220° |
| 2026-05-04 06:46 | 41.85413 | -8.95101 | 39096 ft | 437 kts | 226° |
| 2026-05-04 06:46 | 41.81054 | -9.00784 | 39091 ft | 437 kts | 226° |
| 2026-05-04 06:48 | 41.63614 | -9.23372 | 39104 ft | 437 kts | 226° |
| 2026-05-04 06:50 | 41.46120 | -9.45835 | 39102 ft | 436 kts | 226° |
| 2026-05-04 06:51 | 41.41744 | -9.51436 | 39100 ft | 436 kts | 226° |
| 2026-05-04 06:51 | 41.37360 | -9.57028 | 39088 ft | 436 kts | 226° |
| 2026-05-04 06:52 | 41.32978 | -9.62613 | 39101 ft | 436 kts | 226° |
| 2026-05-04 06:52 | 41.28620 | -9.68153 | 39106 ft | 436 kts | 226° |
| 2026-05-04 06:53 | 41.24236 | -9.73710 | 39112 ft | 435 kts | 226° |
| 2026-05-04 06:53 | 41.19848 | -9.79266 | 39111 ft | 435 kts | 226° |
| 2026-05-04 06:54 | 41.15463 | -9.84806 | 39107 ft | 435 kts | 227° |
| 2026-05-04 06:54 | 41.11080 | -9.90338 | 39098 ft | 435 kts | 227° |
| 2026-05-04 06:55 | 41.06710 | -9.95836 | 39111 ft | 435 kts | 226° |
| 2026-05-04 06:55 | 41.02307 | -10.01362 | 39113 ft | 435 kts | 227° |
| 2026-05-04 06:57 | 40.84247 | -10.22713 | 39108 ft | 438 kts | 220° |
| 2026-05-04 06:58 | 40.79309 | -10.27438 | 39113 ft | 438 kts | 220° |
| 2026-05-04 06:58 | 40.74374 | -10.32154 | 39122 ft | 439 kts | 220° |
| 2026-05-04 06:59 | 40.69417 | -10.36864 | 39124 ft | 439 kts | 219° |
| 2026-05-04 06:59 | 40.64462 | -10.41559 | 39108 ft | 438 kts | 220° |
| 2026-05-04 07:01 | 40.44688 | -10.60271 | 39131 ft | 438 kts | 220° |
| 2026-05-04 07:02 | 40.39741 | -10.64923 | 39114 ft | 438 kts | 220° |
| 2026-05-04 07:02 | 40.34792 | -10.69593 | 39127 ft | 438 kts | 220° |
| 2026-05-04 07:03 | 40.29846 | -10.74245 | 39129 ft | 438 kts | 220° |
| 2026-05-04 07:03 | 40.24892 | -10.78878 | 39132 ft | 437 kts | 220° |
| 2026-05-04 07:04 | 40.19933 | -10.83496 | 39135 ft | 437 kts | 220° |
| 2026-05-04 07:04 | 40.14981 | -10.88120 | 39140 ft | 437 kts | 220° |
| 2026-05-04 07:05 | 40.10025 | -10.92733 | 39141 ft | 437 kts | 220° |
| 2026-05-04 07:05 | 40.05067 | -10.97341 | 39132 ft | 437 kts | 220° |
| 2026-05-04 07:06 | 39.97649 | -11.04218 | 39136 ft | 438 kts | 220° |
| 2026-05-04 07:07 | 39.92684 | -11.08819 | 39128 ft | 438 kts | 220° |
| 2026-05-04 07:09 | 39.72833 | -11.27117 | 39149 ft | 438 kts | 220° |
| 2026-05-04 07:09 | 39.67860 | -11.31679 | 39130 ft | 437 kts | 220° |
| 2026-05-04 07:10 | 39.62881 | -11.36222 | 39132 ft | 438 kts | 220° |
| 2026-05-04 07:12 | 39.42971 | -11.54359 | 39142 ft | 438 kts | 220° |
| 2026-05-04 07:12 | 39.37987 | -11.58878 | 39153 ft | 437 kts | 220° |
| 2026-05-04 07:13 | 39.32934 | -11.63274 | 39153 ft | 438 kts | 218° |
| 2026-05-04 07:13 | 39.27790 | -11.67511 | 39154 ft | 439 kts | 217° |
| 2026-05-04 07:14 | 39.14955 | -11.78089 | 39154 ft | 437 kts | 218° |
| 2026-05-04 07:15 | 39.09846 | -11.82332 | 39161 ft | 436 kts | 218° |
| 2026-05-04 07:15 | 39.04744 | -11.86556 | 39164 ft | 436 kts | 217° |
| 2026-05-04 07:16 | 38.99640 | -11.90761 | 39164 ft | 436 kts | 217° |
| 2026-05-04 07:16 | 38.94568 | -11.94936 | 39154 ft | 435 kts | 217° |
| 2026-05-04 07:17 | 38.89478 | -11.99123 | 39164 ft | 434 kts | 217° |
| 2026-05-04 07:17 | 38.84387 | -12.03300 | 39165 ft | 433 kts | 217° |
| 2026-05-04 07:18 | 38.79307 | -12.07464 | 39153 ft | 433 kts | 218° |
| 2026-05-04 07:18 | 38.74262 | -12.11593 | 39158 ft | 433 kts | 218° |
| 2026-05-04 07:19 | 38.69179 | -12.15747 | 39159 ft | 433 kts | 218° |
| 2026-05-04 07:19 | 38.64102 | -12.19888 | 39174 ft | 432 kts | 218° |
| 2026-05-04 07:20 | 38.59035 | -12.24009 | 39174 ft | 431 kts | 218° |
| 2026-05-04 07:20 | 38.53999 | -12.28096 | 39171 ft | 431 kts | 217° |
| 2026-05-04 07:22 | 38.33781 | -12.44444 | 39166 ft | 429 kts | 218° |
| 2026-05-04 07:23 | 38.28735 | -12.48523 | 39170 ft | 429 kts | 218° |
| 2026-05-04 07:23 | 38.23689 | -12.52580 | 39172 ft | 429 kts | 218° |
| 2026-05-04 07:24 | 38.18640 | -12.56627 | 39166 ft | 429 kts | 217° |
| 2026-05-04 07:24 | 38.13597 | -12.60663 | 39174 ft | 428 kts | 217° |
| 2026-05-04 07:26 | 37.93503 | -12.76716 | 39168 ft | 427 kts | 217° |
| 2026-05-04 07:27 | 37.88476 | -12.80712 | 39173 ft | 426 kts | 217° |
| 2026-05-04 07:27 | 37.83458 | -12.84694 | 39179 ft | 425 kts | 217° |
| 2026-05-04 07:28 | 37.78457 | -12.88670 | 39182 ft | 424 kts | 217° |
| 2026-05-04 07:28 | 37.73448 | -12.92642 | 39186 ft | 425 kts | 217° |
| 2026-05-04 07:29 | 37.68441 | -12.96588 | 39187 ft | 425 kts | 217° |
| 2026-05-04 07:29 | 37.63456 | -13.00509 | 39187 ft | 424 kts | 217° |
| 2026-05-04 07:30 | 37.58445 | -13.04457 | 39190 ft | 425 kts | 217° |
| 2026-05-04 07:30 | 37.53437 | -13.08397 | 39192 ft | 425 kts | 217° |
| 2026-05-04 07:31 | 37.49237 | -13.11694 | 39191 ft | 424 kts | 217° |
| 2026-05-04 07:33 | 37.29253 | -13.27324 | 39195 ft | 422 kts | 217° |
| 2026-05-04 07:33 | 37.24257 | -13.31200 | 39190 ft | 422 kts | 217° |
| 2026-05-04 07:34 | 37.19265 | -13.35073 | 39168 ft | 422 kts | 218° |
| 2026-05-04 07:34 | 37.14310 | -13.38924 | 39191 ft | 421 kts | 218° |
| 2026-05-04 07:35 | 37.09337 | -13.42791 | 39193 ft | 420 kts | 218° |
| 2026-05-04 07:35 | 37.04368 | -13.46640 | 39195 ft | 420 kts | 218° |
| 2026-05-04 07:36 | 36.99402 | -13.50478 | 39186 ft | 419 kts | 218° |
| 2026-05-04 07:38 | 36.79568 | -13.65734 | 39192 ft | 419 kts | 218° |
| 2026-05-04 07:38 | 36.74600 | -13.69542 | 39194 ft | 419 kts | 218° |
| 2026-05-04 07:39 | 36.69636 | -13.73356 | 39196 ft | 419 kts | 218° |
| 2026-05-04 07:39 | 36.64704 | -13.77132 | 39182 ft | 418 kts | 218° |
| 2026-05-04 07:40 | 36.59740 | -13.80918 | 39198 ft | 418 kts | 218° |
| 2026-05-04 07:40 | 36.54787 | -13.84692 | 39202 ft | 417 kts | 218° |
| 2026-05-04 07:41 | 36.49835 | -13.88458 | 39196 ft | 417 kts | 218° |
| 2026-05-04 07:41 | 36.44876 | -13.92224 | 39198 ft | 417 kts | 218° |
| 2026-05-04 07:42 | 36.39960 | -13.95958 | 39171 ft | 417 kts | 218° |
| 2026-05-04 07:42 | 36.35020 | -13.99706 | 39193 ft | 416 kts | 218° |
| 2026-05-04 07:43 | 36.30082 | -14.03439 | 39204 ft | 415 kts | 218° |
| 2026-05-04 07:43 | 36.25145 | -14.07157 | 39203 ft | 415 kts | 218° |
| 2026-05-04 07:44 | 36.20211 | -14.10870 | 39205 ft | 415 kts | 218° |
| 2026-05-04 07:44 | 36.15276 | -14.14588 | 39203 ft | 415 kts | 218° |
| 2026-05-04 07:45 | 36.10347 | -14.18300 | 39189 ft | 414 kts | 218° |
| 2026-05-04 07:45 | 36.05423 | -14.21994 | 39194 ft | 414 kts | 218° |
| 2026-05-04 07:46 | 36.00526 | -14.25662 | 39197 ft | 414 kts | 218° |
| 2026-05-04 07:46 | 35.95601 | -14.29350 | 39201 ft | 414 kts | 218° |
| 2026-05-04 07:47 | 35.90676 | -14.33037 | 39204 ft | 414 kts | 218° |
| 2026-05-04 07:49 | 35.70964 | -14.47709 | 39204 ft | 414 kts | 218° |
| 2026-05-04 07:49 | 35.66036 | -14.51379 | 39203 ft | 414 kts | 218° |
| 2026-05-04 07:50 | 35.61104 | -14.55036 | 39175 ft | 414 kts | 217° |
| 2026-05-04 07:50 | 35.56170 | -14.58684 | 39180 ft | 414 kts | 217° |
| 2026-05-04 07:51 | 35.51231 | -14.62333 | 39190 ft | 414 kts | 217° |
| 2026-05-04 07:51 | 35.46303 | -14.65970 | 39196 ft | 414 kts | 217° |
| 2026-05-04 07:52 | 35.41391 | -14.69580 | 39197 ft | 414 kts | 217° |
| 2026-05-04 07:52 | 35.36448 | -14.73201 | 39199 ft | 414 kts | 217° |
| 2026-05-04 07:54 | 35.16713 | -14.87685 | 39195 ft | 413 kts | 217° |
| 2026-05-04 07:55 | 35.11780 | -14.91288 | 39195 ft | 413 kts | 217° |
| 2026-05-04 07:55 | 35.06843 | -14.94879 | 39194 ft | 413 kts | 216° |
| 2026-05-04 07:56 | 35.01902 | -14.98468 | 39196 ft | 413 kts | 216° |
| 2026-05-04 07:56 | 34.96997 | -15.02033 | 39188 ft | 413 kts | 216° |
| 2026-05-04 07:57 | 34.92063 | -15.05622 | 39187 ft | 413 kts | 216° |
| 2026-05-04 07:57 | 34.87134 | -15.09202 | 39184 ft | 413 kts | 216° |
| 2026-05-04 07:58 | 34.82186 | -15.12779 | 39182 ft | 413 kts | 216° |
| 2026-05-04 07:58 | 34.77239 | -15.16358 | 39166 ft | 413 kts | 216° |
| 2026-05-04 07:59 | 34.72299 | -15.19930 | 39180 ft | 413 kts | 216° |
| 2026-05-04 07:59 | 34.67358 | -15.23500 | 39181 ft | 412 kts | 216° |
| 2026-05-04 08:00 | 34.62462 | -15.27024 | 39184 ft | 412 kts | 216° |
| 2026-05-04 08:02 | 34.42750 | -15.41175 | 39178 ft | 410 kts | 216° |
| 2026-05-04 08:02 | 34.37868 | -15.44663 | 39185 ft | 410 kts | 216° |
| 2026-05-04 08:03 | 34.32954 | -15.48164 | 39176 ft | 410 kts | 216° |
| 2026-05-04 08:03 | 34.28041 | -15.51667 | 39180 ft | 409 kts | 216° |
| 2026-05-04 08:04 | 34.23142 | -15.55158 | 38845 ft | 406 kts | 215° |
| 2026-05-04 08:04 | 34.20723 | -15.56875 | 38372 ft | 401 kts | 216° |
| 2026-05-04 08:04 | 34.18329 | -15.58577 | 37836 ft | 397 kts | 216° |
| 2026-05-04 08:05 | 34.15952 | -15.60265 | 37304 ft | 394 kts | 216° |
| 2026-05-04 08:05 | 34.13583 | -15.61945 | 36658 ft | 394 kts | 216° |
| 2026-05-04 08:05 | 34.11220 | -15.63623 | 36009 ft | 395 kts | 217° |
| 2026-05-04 08:05 | 34.08888 | -15.65284 | 35331 ft | 396 kts | 217° |
| 2026-05-04 08:06 | 34.06499 | -15.66984 | 34598 ft | 399 kts | 217° |
| 2026-05-04 08:06 | 34.04092 | -15.68691 | 33761 ft | 403 kts | 217° |
| 2026-05-04 08:06 | 34.01666 | -15.70408 | 33075 ft | 403 kts | 217° |
| 2026-05-04 08:06 | 33.99266 | -15.72098 | 32606 ft | 397 kts | 217° |
| 2026-05-04 08:08 | 33.83095 | -15.83499 | 29038 ft | 374 kts | 217° |
| 2026-05-04 08:08 | 33.80861 | -15.85071 | 28556 ft | 370 kts | 217° |
| 2026-05-04 08:10 | 33.63673 | -15.97231 | 24991 ft | 346 kts | 218° |
| 2026-05-04 08:11 | 33.61659 | -15.98786 | 24582 ft | 343 kts | 218° |
| 2026-05-04 08:11 | 33.57676 | -16.01903 | 23755 ft | 340 kts | 218° |
| 2026-05-04 08:11 | 33.55722 | -16.03423 | 23306 ft | 339 kts | 217° |
| 2026-05-04 08:12 | 33.53747 | -16.04949 | 22885 ft | 337 kts | 217° |
| 2026-05-04 08:12 | 33.51757 | -16.06478 | 22474 ft | 335 kts | 217° |
| 2026-05-04 08:12 | 33.49791 | -16.07982 | 22049 ft | 334 kts | 217° |
| 2026-05-04 08:12 | 33.47867 | -16.09452 | 21652 ft | 333 kts | 217° |
| 2026-05-04 08:13 | 33.45918 | -16.10938 | 21232 ft | 332 kts | 217° |
| 2026-05-04 08:13 | 33.43971 | -16.12422 | 20819 ft | 330 kts | 217° |
| 2026-05-04 08:13 | 33.42039 | -16.13896 | 20407 ft | 329 kts | 217° |
| 2026-05-04 08:13 | 33.40109 | -16.15369 | 19976 ft | 329 kts | 216° |
| 2026-05-04 08:14 | 33.38180 | -16.16840 | 19562 ft | 328 kts | 216° |
| 2026-05-04 08:14 | 33.36264 | -16.18301 | 19145 ft | 327 kts | 216° |
| 2026-05-04 08:14 | 33.34343 | -16.19765 | 18726 ft | 328 kts | 216° |
| 2026-05-04 08:16 | 33.20964 | -16.29940 | 15820 ft | 324 kts | 216° |
| 2026-05-04 08:16 | 33.19060 | -16.31385 | 15420 ft | 325 kts | 215° |
| 2026-05-04 08:16 | 33.17154 | -16.32826 | 15016 ft | 326 kts | 215° |
| 2026-05-04 08:17 | 33.15230 | -16.34282 | 14610 ft | 328 kts | 216° |
| 2026-05-04 08:17 | 33.13325 | -16.35726 | 14204 ft | 329 kts | 215° |
| 2026-05-04 08:17 | 33.11388 | -16.37192 | 13771 ft | 329 kts | 214° |
| 2026-05-04 08:17 | 33.09462 | -16.38647 | 13338 ft | 326 kts | 214° |
| 2026-05-04 08:19 | 32.96342 | -16.48559 | 10426 ft | 313 kts | 214° |
| 2026-05-04 08:19 | 32.94534 | -16.49921 | 10266 ft | 300 kts | 214° |
| 2026-05-04 08:20 | 32.92825 | -16.51255 | 9819 ft | 288 kts | 220° |
| 2026-05-04 08:20 | 32.91354 | -16.52814 | 9626 ft | 283 kts | 224° |
| 2026-05-04 08:20 | 32.89875 | -16.54402 | 9115 ft | 292 kts | 223° |
| 2026-05-04 08:20 | 32.88393 | -16.55973 | 8898 ft | 283 kts | 223° |
| 2026-05-04 08:21 | 32.86960 | -16.57489 | 8701 ft | 268 kts | 223° |
| 2026-05-04 08:21 | 32.85591 | -16.58943 | 8233 ft | 260 kts | 223° |
| 2026-05-04 08:21 | 32.84270 | -16.60348 | 7921 ft | 255 kts | 223° |
| 2026-05-04 08:21 | 32.82952 | -16.61751 | 7493 ft | 253 kts | 223° |
| 2026-05-04 08:22 | 32.81533 | -16.62978 | 7052 ft | 252 kts | 210° |
| 2026-05-04 08:22 | 32.79927 | -16.63826 | 6607 ft | 254 kts | 200° |
| 2026-05-04 08:24 | 32.69030 | -16.68242 | 3871 ft | 221 kts | 200° |
| 2026-05-04 08:24 | 32.67642 | -16.68803 | 3798 ft | 201 kts | 199° |
| 2026-05-04 08:24 | 32.66393 | -16.69305 | 3738 ft | 180 kts | 200° |
| 2026-05-04 08:24 | 32.65267 | -16.69759 | 3654 ft | 160 kts | 200° |
| 2026-05-04 08:25 | 32.64268 | -16.70164 | 3562 ft | 146 kts | 200° |
| 2026-05-04 08:25 | 32.63330 | -16.70655 | 3297 ft | 151 kts | 211° |
| 2026-05-04 08:25 | 32.62228 | -16.71683 | 2763 ft | 153 kts | 227° |
| 2026-05-04 08:25 | 32.61773 | -16.72338 | 2529 ft | 150 kts | 235° |
| 2026-05-04 08:26 | 32.61274 | -16.73384 | 2338 ft | 144 kts | 246° |
| 2026-05-04 08:27 | 32.63332 | -16.80193 | 1392 ft | 142 kts | 343° |
| 2026-05-04 08:28 | 32.64310 | -16.80351 | 1203 ft | 142 kts | 0° |
| 2026-05-04 08:28 | 32.65304 | -16.80345 | 1021 ft | 143 kts | 0° |
| 2026-05-04 08:28 | 32.66291 | -16.80326 | 830 ft | 141 kts | 7° |
| 2026-05-04 08:28 | 32.67235 | -16.80040 | 649 ft | 140 kts | 24° |
| 2026-05-04 08:29 | 32.68054 | -16.79431 | 446 ft | 138 kts | 40° |
| 2026-05-04 08:29 | 32.68746 | -16.78646 | 263 ft | 138 kts | 45° |
| 2026-05-04 08:29 | 32.69408 | -16.77883 | 178 ft | 121 kts | 45° |
| 2026-05-04 08:31 | 32.69842 | -16.77183 | 176 ft | 3 kts | 200° |
| 2026-05-04 08:33 | 32.69663 | -16.77395 | 176 ft | 12 kts | 226° |
| 2026-05-04 08:33 | 32.69600 | -16.77474 | 176 ft | 13 kts | 226° |
| 2026-05-04 08:35 | 32.69437 | -16.77556 | 176 ft | 0 kts | 139° |